Time;durP1;ratioP1;P1;durP2;ratioP2;P2;SDS_P1;SDS_P2;PMS_P1;PMS_P2;Temp;Humidity;BMP_temperature;BMP_pressure;BME280_temperature;BME280_humidity;BME280_pressure;Samples;Min_cycle;Max_cycle;Signal;HPM_P1;HPM_P2
2022/01/20 00:01:50;;;;;;;12.07;11.17;;;3.80;99.90;;;;;;5006077;28;20707;-79
2022/01/20 00:04:24;;;;;;;12.30;11.30;;;3.80;99.90;;;;;;5030904;28;20262;-79
2022/01/20 00:25:45;;;;;;;12.23;11.33;;;3.80;99.90;;;;;;5016807;28;20192;-77
2022/01/20 00:26:21;;;;;;;12.83;11.93;;;3.80;99.90;;;;;;5025000;28;20443;-80
2022/01/20 00:28:51;;;;;;;12.70;11.80;;;3.80;99.90;;;;;;5025940;28;20451;-77
2022/01/20 00:31:44;;;;;;;13.10;12.00;;;3.80;99.90;;;;;;5023600;28;20208;-78
2022/01/20 00:34:15;;;;;;;13.13;12.13;;;3.80;99.90;;;;;;5025085;28;20220;-78
2022/01/20 00:39:28;;;;;;;13.37;12.20;;;3.70;99.90;;;;;;5025093;28;20518;-79
2022/01/20 00:41:56;;;;;;;13.50;12.50;;;3.70;99.90;;;;;;5010712;28;20207;-79
2022/01/20 00:44:23;;;;;;;12.80;11.90;;;3.70;99.90;;;;;;5005374;28;20470;-79
2022/01/20 00:46:50;;;;;;;12.97;12.00;;;3.70;99.90;;;;;;5011559;28;20466;-79
2022/01/20 00:49:17;;;;;;;11.80;11.10;;;3.70;99.90;;;;;;5025068;28;20797;-78
2022/01/20 00:51:45;;;;;;;12.63;11.70;;;3.70;99.90;;;;;;5033061;28;20196;-78
2022/01/20 00:54:12;;;;;;;12.87;11.87;;;3.70;99.90;;;;;;5007237;28;20470;-78
2022/01/20 00:56:39;;;;;;;12.80;11.90;;;3.70;99.90;;;;;;5027246;28;20196;-78
2022/01/20 00:59:07;;;;;;;12.80;11.80;;;3.70;99.90;;;;;;5007459;28;20222;-77
2022/01/20 01:01:34;;;;;;;12.47;11.57;;;3.70;99.90;;;;;;5007638;28;20529;-77
2022/01/20 01:04:02;;;;;;;12.80;11.90;;;3.70;99.90;;;;;;5008318;28;20466;-78
2022/01/20 01:06:45;;;;;;;12.40;11.50;;;3.70;99.90;;;;;;5005816;28;20545;-79
2022/01/20 01:09:12;;;;;;;12.83;11.93;;;3.70;99.90;;;;;;5007244;28;20202;-78
2022/01/20 01:11:42;;;;;;;13.23;12.23;;;3.70;99.90;;;;;;5022525;28;20438;-78
2022/01/20 01:14:11;;;;;;;12.83;11.83;;;3.70;99.90;;;;;;5009786;28;21050;-78
2022/01/20 01:20:02;;;;;;;12.47;11.60;;;3.70;99.90;;;;;;5023352;28;20454;-79
2022/01/20 01:22:23;;;;;;;12.73;11.80;;;3.70;99.90;;;;;;5011783;28;20188;-78
2022/01/20 01:24:54;;;;;;;13.63;12.63;;;3.70;99.90;;;;;;5009568;28;20243;-79
2022/01/20 01:27:23;;;;;;;13.20;12.20;;;3.70;99.90;;;;;;5007365;28;20481;-80
2022/01/20 01:30:17;;;;;;;13.40;12.43;;;3.70;99.90;;;;;;5025719;28;20829;-78
2022/01/20 01:32:49;;;;;;;13.47;12.40;;;3.70;99.90;;;;;;5006175;28;20214;-78
2022/01/20 01:35:17;;;;;;;12.40;11.50;;;3.60;99.90;;;;;;5006154;28;20307;-78
2022/01/20 01:40:31;;;;;;;12.57;11.67;;;3.60;99.90;;;;;;5009589;28;20636;-77
2022/01/20 01:43:02;;;;;;;12.97;11.97;;;3.60;99.90;;;;;;5026961;28;20896;-77
2022/01/20 01:45:33;;;;;;;13.20;12.20;;;3.50;99.90;;;;;;5029815;28;20438;-78
2022/01/20 01:48:01;;;;;;;13.17;12.20;;;3.50;99.90;;;;;;5011405;28;20497;-78
2022/01/20 01:50:28;;;;;;;14.80;13.77;;;3.40;99.90;;;;;;4997754;28;20504;-78
2022/01/20 01:52:57;;;;;;;14.27;13.27;;;3.40;99.90;;;;;;5027748;28;20996;-78
2022/01/20 01:55:25;;;;;;;14.70;13.60;;;3.30;99.90;;;;;;5010571;28;20864;-78
2022/01/20 01:57:53;;;;;;;13.80;12.90;;;3.30;99.90;;;;;;5010989;28;20197;-78
2022/01/20 02:00:22;;;;;;;13.67;12.77;;;3.30;99.90;;;;;;5010264;28;20536;-78
2022/01/20 02:02:58;;;;;;;13.27;12.47;;;3.30;99.90;;;;;;5022976;28;20451;-77
2022/01/20 02:05:40;;;;;;;14.13;13.13;;;3.40;99.90;;;;;;5000037;28;20228;-77
2022/01/20 02:19:19;;;;;;;13.57;12.57;;;3.40;99.90;;;;;;5024427;28;20250;-77
2022/01/20 02:21:52;;;;;;;14.07;13.07;;;3.40;99.90;;;;;;5001775;28;20502;-77
2022/01/20 02:24:22;;;;;;;13.67;12.77;;;3.40;99.90;;;;;;5009545;28;20219;-79
2022/01/20 02:26:50;;;;;;;14.80;13.70;;;3.40;99.90;;;;;;5036597;22;20506;-75
2022/01/20 02:29:38;;;;;;;13.60;12.70;;;3.40;99.90;;;;;;5032647;28;20211;-76
2022/01/20 02:32:06;;;;;;;14.57;13.47;;;3.40;99.90;;;;;;5038569;28;20457;-75
2022/01/20 02:34:33;;;;;;;13.93;12.90;;;3.40;99.90;;;;;;5030983;28;20469;-76
2022/01/20 02:37:04;;;;;;;13.37;12.50;;;3.40;99.90;;;;;;5041989;28;21012;-74
2022/01/20 02:39:58;;;;;;;14.17;13.17;;;3.40;99.90;;;;;;5036227;28;20199;-75
2022/01/20 02:45:10;;;;;;;13.40;12.40;;;3.40;99.90;;;;;;5060251;28;20480;-76
2022/01/20 02:47:37;;;;;;;13.30;12.40;;;3.40;99.90;;;;;;5038626;28;20564;-76
2022/01/20 02:50:05;;;;;;;14.60;13.60;;;3.40;99.90;;;;;;5039471;28;20488;-76
2022/01/20 02:52:37;;;;;;;13.87;12.97;;;3.40;99.90;;;;;;5041270;28;20203;-77
2022/01/20 02:55:05;;;;;;;13.87;12.87;;;3.40;99.90;;;;;;5030287;28;20492;-76
2022/01/20 02:57:32;;;;;;;13.70;12.80;;;3.40;99.90;;;;;;5046786;28;20449;-76
2022/01/20 02:59:59;;;;;;;13.30;12.40;;;3.40;99.90;;;;;;5040151;28;20191;-76
2022/01/20 03:02:26;;;;;;;13.80;12.90;;;3.40;99.90;;;;;;5064350;28;20959;-75
2022/01/20 03:04:53;;;;;;;13.23;12.43;;;3.40;99.90;;;;;;5039902;28;20195;-75
2022/01/20 03:07:31;;;;;;;13.47;12.57;;;3.40;99.90;;;;;;5041080;28;20459;-74
2022/01/20 03:09:59;;;;;;;12.83;11.93;;;3.40;99.90;;;;;;5035643;28;20468;-76
2022/01/20 03:12:26;;;;;;;13.23;12.33;;;3.40;99.90;;;;;;5060799;28;20444;-75
2022/01/20 03:14:52;;;;;;;13.17;12.20;;;3.40;99.90;;;;;;5043088;28;20861;-75
2022/01/20 03:17:19;;;;;;;12.83;12.00;;;3.40;99.90;;;;;;5036222;28;20208;-74
2022/01/20 03:19:46;;;;;;;13.50;12.60;;;3.40;99.90;;;;;;5061099;28;20440;-76
2022/01/20 03:22:13;;;;;;;13.43;12.63;;;3.40;99.90;;;;;;5043549;28;20289;-76
2022/01/20 03:24:40;;;;;;;12.97;12.17;;;3.50;99.90;;;;;;5038536;28;20970;-76
2022/01/20 03:27:08;;;;;;;12.90;12.10;;;3.50;99.90;;;;;;5035785;28;20479;-76
2022/01/20 03:29:35;;;;;;;13.10;12.30;;;3.50;99.90;;;;;;5044531;28;20198;-75
2022/01/20 03:32:03;;;;;;;13.17;12.27;;;3.40;99.90;;;;;;5042881;28;20657;-78
2022/01/20 03:34:30;;;;;;;13.27;12.47;;;3.40;99.90;;;;;;5041075;28;20453;-76
2022/01/20 03:37:04;;;;;;;13.97;12.97;;;3.50;99.90;;;;;;5037405;28;20218;-76
2022/01/20 03:39:56;;;;;;;13.33;12.53;;;3.40;99.90;;;;;;5055363;28;20209;-76
2022/01/20 03:42:24;;;;;;;13.13;12.30;;;3.40;99.90;;;;;;5030460;28;20460;-80
2022/01/20 03:44:52;;;;;;;13.20;12.33;;;3.40;99.90;;;;;;5026745;28;20446;-78
2022/01/20 03:47:20;;;;;;;13.67;12.77;;;3.40;99.90;;;;;;5033596;28;20249;-77
2022/01/20 03:49:54;;;;;;;13.83;13.03;;;3.40;99.90;;;;;;5039440;28;20449;-78
2022/01/20 03:52:22;;;;;;;12.97;12.17;;;3.40;99.90;;;;;;5035465;28;20441;-79
2022/01/20 03:54:49;;;;;;;13.17;12.37;;;3.40;99.90;;;;;;5032648;28;20454;-80
2022/01/20 03:57:33;;;;;;;14.67;13.73;;;3.30;99.90;;;;;;5055141;28;20480;-81
2022/01/20 04:00:05;;;;;;;13.33;12.53;;;3.30;99.90;;;;;;5064866;28;20693;-81
2022/01/20 04:02:41;;;;;;;13.17;12.37;;;3.30;99.90;;;;;;5063092;28;20436;-81
2022/01/20 04:05:27;;;;;;;13.90;12.90;;;3.20;99.90;;;;;;5065631;28;20532;-80
2022/01/20 04:08:12;;;;;;;13.60;12.70;;;3.20;99.90;;;;;;5046021;28;20682;-80
2022/01/20 04:10:38;;;;;;;13.53;12.63;;;3.20;99.90;;;;;;5034872;28;20464;-81
2022/01/20 04:13:07;;;;;;;13.63;12.73;;;3.10;99.90;;;;;;5054980;28;20442;-79
2022/01/20 04:15:38;;;;;;;14.77;13.80;;;3.20;99.90;;;;;;5048033;28;20493;-78
2022/01/20 04:18:06;;;;;;;13.63;12.73;;;3.20;99.90;;;;;;5042408;28;20206;-76
2022/01/20 04:20:33;;;;;;;14.33;13.43;;;3.10;99.90;;;;;;5042136;28;20198;-77
2022/01/20 04:23:00;;;;;;;13.13;12.43;;;3.20;99.90;;;;;;5036929;28;20196;-77
2022/01/20 04:25:27;;;;;;;13.90;13.00;;;3.20;99.90;;;;;;5059620;28;20483;-78
2022/01/20 04:27:54;;;;;;;14.17;13.20;;;3.20;99.90;;;;;;5042211;28;20191;-78
2022/01/20 04:30:22;;;;;;;14.03;13.17;;;3.20;99.90;;;;;;5044009;28;20468;-78
2022/01/20 04:32:49;;;;;;;13.40;12.60;;;3.20;99.90;;;;;;5042016;28;20203;-77
2022/01/20 04:35:19;;;;;;;13.43;12.63;;;3.20;99.90;;;;;;5038077;28;20998;-79
2022/01/20 04:37:47;;;;;;;13.30;12.50;;;3.20;99.90;;;;;;5035193;28;20502;-76
2022/01/20 04:40:14;;;;;;;13.00;12.20;;;3.30;99.90;;;;;;5038868;28;20442;-78
2022/01/20 04:42:44;;;;;;;13.80;12.90;;;3.30;99.90;;;;;;5041425;28;20806;-77
2022/01/20 04:45:16;;;;;;;14.00;13.10;;;3.30;99.90;;;;;;5045759;28;20457;-76
2022/01/20 04:47:50;;;;;;;13.53;12.63;;;3.30;99.90;;;;;;5043319;28;20949;-77
2022/01/20 04:58:31;;;;;;;14.17;13.27;;;3.20;99.90;;;;;;5033430;28;20190;-76
2022/01/20 05:00:59;;;;;;;14.57;13.67;;;3.30;99.90;;;;;;5040776;28;20867;-76
2022/01/20 05:03:27;;;;;;;13.73;12.77;;;3.30;99.90;;;;;;5062207;28;20240;-77
2022/01/20 05:05:58;;;;;;;13.00;12.20;;;3.30;99.90;;;;;;5041604;28;20222;-75
2022/01/20 05:08:28;;;;;;;12.67;11.87;;;3.30;99.90;;;;;;5037738;28;20206;-76
2022/01/20 05:11:02;;;;;;;12.63;11.83;;;3.30;99.90;;;;;;5035414;28;20499;-77
2022/01/20 05:13:35;;;;;;;12.67;11.97;;;3.30;99.90;;;;;;5037666;28;20440;-76
2022/01/20 05:16:02;;;;;;;13.20;12.40;;;3.30;99.90;;;;;;5036777;28;20824;-76
2022/01/20 05:18:31;;;;;;;12.80;12.00;;;3.40;99.90;;;;;;5052586;28;20733;-76
2022/01/20 05:20:59;;;;;;;12.43;11.73;;;3.40;99.90;;;;;;5041286;28;20450;-77
2022/01/20 05:23:26;;;;;;;12.80;11.93;;;3.40;99.90;;;;;;5064997;28;20191;-77
2022/01/20 05:25:53;;;;;;;12.53;11.83;;;3.40;99.90;;;;;;5048776;28;20547;-76
2022/01/20 05:28:22;;;;;;;12.60;11.90;;;3.30;99.90;;;;;;5039906;28;20488;-75
2022/01/20 05:30:50;;;;;;;12.20;11.50;;;3.30;99.90;;;;;;5039647;28;20495;-76
2022/01/20 05:33:29;;;;;;;12.10;11.40;;;3.30;99.90;;;;;;5034872;28;20209;-75
2022/01/20 05:35:57;;;;;;;12.10;11.40;;;3.30;99.90;;;;;;5035790;28;20223;-76
2022/01/20 05:38:24;;;;;;;12.50;11.80;;;3.30;99.90;;;;;;5061150;28;20449;-76
2022/01/20 05:40:52;;;;;;;12.10;11.30;;;3.30;99.90;;;;;;5044847;28;20671;-77
2022/01/20 05:43:20;;;;;;;11.90;11.20;;;3.20;99.90;;;;;;5047611;28;20446;-76
2022/01/20 05:45:49;;;;;;;11.40;10.80;;;3.20;99.90;;;;;;5041170;28;20544;-75
2022/01/20 05:48:20;;;;;;;11.67;10.97;;;3.20;99.90;;;;;;5042094;28;20648;-75
2022/01/20 05:50:47;;;;;;;12.30;11.60;;;3.20;99.90;;;;;;5063767;28;20212;-77
2022/01/20 05:53:16;;;;;;;12.50;11.80;;;3.20;99.90;;;;;;5041294;28;20206;-77
2022/01/20 05:55:43;;;;;;;12.17;11.37;;;3.20;99.90;;;;;;5045259;28;20225;-77
2022/01/20 05:58:10;;;;;;;12.20;11.50;;;3.30;99.90;;;;;;5061328;28;20195;-77
2022/01/20 06:00:38;;;;;;;11.73;11.13;;;3.20;99.90;;;;;;5046885;28;20445;-76
2022/01/20 06:05:51;;;;;;;12.07;11.37;;;3.20;99.90;;;;;;5039233;28;20512;-77
2022/01/20 06:08:19;;;;;;;11.70;11.10;;;3.20;99.90;;;;;;5045982;28;20449;-76
2022/01/20 06:10:47;;;;;;;12.10;11.40;;;3.20;99.90;;;;;;5043953;28;20472;-77
2022/01/20 06:13:22;;;;;;;11.87;11.23;;;3.20;99.90;;;;;;5031535;28;20485;-77
2022/01/20 06:15:48;;;;;;;11.80;11.10;;;3.30;99.90;;;;;;5045692;28;20564;-77
2022/01/20 06:18:16;;;;;;;12.03;11.33;;;3.20;99.90;;;;;;5047279;28;20453;-78
2022/01/20 06:20:49;;;;;;;11.60;10.90;;;3.20;99.90;;;;;;5045744;28;20198;-77
2022/01/20 06:23:19;;;;;;;12.40;11.70;;;3.20;99.90;;;;;;5036548;28;20199;-77
2022/01/20 06:25:47;;;;;;;11.87;11.20;;;3.30;99.90;;;;;;5036217;28;20251;-77
2022/01/20 06:28:15;;;;;;;12.30;11.50;;;3.30;99.90;;;;;;5059627;28;20458;-76
2022/01/20 06:30:43;;;;;;;12.20;11.60;;;3.30;99.90;;;;;;5043084;28;20442;-77
2022/01/20 06:33:10;;;;;;;11.60;11.00;;;3.30;99.90;;;;;;5044465;28;20456;-75
2022/01/20 06:35:42;;;;;;;11.80;11.10;;;3.20;99.90;;;;;;5040279;28;20465;-77
2022/01/20 06:38:09;;;;;;;11.90;11.20;;;3.20;99.90;;;;;;5043805;28;20518;-75
2022/01/20 06:40:37;;;;;;;12.03;11.33;;;3.20;99.90;;;;;;5038856;28;20465;-73
2022/01/20 06:43:05;;;;;;;12.27;11.57;;;3.10;99.90;;;;;;5034482;28;20883;-77
2022/01/20 06:45:33;;;;;;;12.80;12.10;;;3.20;99.90;;;;;;5044575;28;20838;-76
2022/01/20 06:48:07;;;;;;;12.13;11.43;;;3.20;99.90;;;;;;5044065;28;20476;-76
2022/01/20 06:50:37;;;;;;;11.77;11.17;;;3.10;99.90;;;;;;5036809;28;20200;-77
2022/01/20 06:53:04;;;;;;;11.80;11.20;;;3.10;99.90;;;;;;5043590;28;20539;-76
2022/01/20 06:55:30;;;;;;;12.10;11.40;;;3.20;99.90;;;;;;5039375;28;20462;-77
2022/01/20 06:57:59;;;;;;;11.97;11.27;;;3.20;99.90;;;;;;5039804;28;20505;-77
2022/01/20 07:00:27;;;;;;;12.00;11.30;;;3.20;99.90;;;;;;5042054;28;20448;-77
2022/01/20 07:02:54;;;;;;;11.60;11.00;;;3.20;99.90;;;;;;5050643;28;20443;-77
2022/01/20 07:05:22;;;;;;;11.83;11.20;;;3.20;99.90;;;;;;5036173;28;20313;-76
2022/01/20 07:07:50;;;;;;;12.10;11.40;;;3.20;99.90;;;;;;5041998;28;20460;-77
2022/01/20 07:10:21;;;;;;;11.77;11.07;;;3.20;99.90;;;;;;5031069;28;20601;-76
2022/01/20 07:12:54;;;;;;;12.37;11.57;;;3.30;99.90;;;;;;5046767;28;20502;-76
2022/01/20 07:15:23;;;;;;;12.40;11.70;;;3.20;99.90;;;;;;5038917;28;20310;-76
2022/01/20 07:17:52;;;;;;;11.73;11.10;;;3.30;99.90;;;;;;5042949;28;20902;-76
2022/01/20 07:20:23;;;;;;;12.00;11.40;;;3.20;99.90;;;;;;5045543;28;20528;-76
2022/01/20 07:22:59;;;;;;;12.40;11.70;;;3.20;99.90;;;;;;5043428;28;20856;-76
2022/01/20 07:25:26;;;;;;;12.27;11.57;;;3.30;99.90;;;;;;5039165;28;20226;-75
2022/01/20 07:27:55;;;;;;;12.00;11.30;;;3.30;99.90;;;;;;5041996;28;20183;-75
2022/01/20 07:30:24;;;;;;;12.57;11.87;;;3.30;99.90;;;;;;5049388;28;20837;-76
2022/01/20 07:32:51;;;;;;;12.63;11.90;;;3.20;99.90;;;;;;5046552;28;20285;-75
2022/01/20 07:35:21;;;;;;;12.87;12.10;;;3.30;99.90;;;;;;5036559;28;20595;-75
2022/01/20 07:37:49;;;;;;;13.60;12.80;;;3.30;99.90;;;;;;5042687;28;20477;-77
2022/01/20 07:40:15;;;;;;;12.60;11.80;;;3.30;99.90;;;;;;5041889;28;20460;-76
2022/01/20 07:42:42;;;;;;;13.30;12.50;;;3.30;99.90;;;;;;5061399;28;20851;-77
2022/01/20 07:45:13;;;;;;;12.83;12.10;;;3.30;99.90;;;;;;5034745;28;20238;-75
2022/01/20 07:47:49;;;;;;;13.13;12.33;;;3.30;99.90;;;;;;5035345;28;20191;-76
2022/01/20 07:50:16;;;;;;;13.50;12.70;;;3.40;99.90;;;;;;5059641;28;20195;-76
2022/01/20 07:52:43;;;;;;;14.23;13.40;;;3.40;99.90;;;;;;5042498;28;20593;-75
2022/01/20 07:55:11;;;;;;;13.30;12.50;;;3.40;99.90;;;;;;5043624;28;20691;-76
2022/01/20 07:57:38;;;;;;;13.10;12.30;;;3.40;99.90;;;;;;5042733;28;20225;-76
2022/01/20 08:00:09;;;;;;;11.33;10.63;;;3.40;99.90;;;;;;5040168;28;20672;-74
2022/01/20 08:02:45;;;;;;;11.00;10.30;;;3.40;99.90;;;;;;5060505;28;20695;-76
2022/01/20 08:05:23;;;;;;;11.60;10.90;;;3.40;99.90;;;;;;5044227;28;20226;-76
2022/01/20 08:07:50;;;;;;;11.77;11.00;;;3.50;99.90;;;;;;5042280;28;20541;-76
2022/01/20 08:10:17;;;;;;;11.73;11.03;;;3.40;99.90;;;;;;5037183;28;20202;-78
2022/01/20 08:12:44;;;;;;;11.40;10.70;;;3.40;99.90;;;;;;5033020;28;20316;-77
2022/01/20 08:15:18;;;;;;;11.80;11.10;;;3.30;99.90;;;;;;5029732;28;20462;-77
2022/01/20 08:18:06;;;;;;;12.63;11.83;;;3.30;99.90;;;;;;5062033;28;20266;-76
2022/01/20 08:20:36;;;;;;;12.97;12.17;;;3.20;99.90;;;;;;5042299;28;20983;-76
2022/01/20 08:23:06;;;;;;;13.03;12.23;;;3.20;99.90;;;;;;5036258;28;20559;-75
2022/01/20 08:25:34;;;;;;;12.50;11.80;;;3.20;99.90;;;;;;5068449;22;20491;-78
2022/01/20 08:28:02;;;;;;;13.17;12.27;;;3.30;99.90;;;;;;5023145;28;20558;-78
2022/01/20 08:30:35;;;;;;;11.80;11.10;;;3.50;99.90;;;;;;5017643;28;20575;-77
2022/01/20 08:33:02;;;;;;;12.47;11.67;;;3.70;99.90;;;;;;5024548;28;20658;-78
2022/01/20 08:35:39;;;;;;;11.77;11.00;;;3.80;99.90;;;;;;5034188;28;20282;-78
2022/01/20 08:38:10;;;;;;;11.47;10.77;;;3.90;99.90;;;;;;5039554;28;20475;-77
2022/01/20 08:40:39;;;;;;;11.50;10.80;;;3.90;99.90;;;;;;5044727;28;20184;-77
2022/01/20 08:43:07;;;;;;;11.70;11.00;;;4.00;99.90;;;;;;5027589;28;20214;-78
2022/01/20 08:45:38;;;;;;;11.30;10.70;;;4.20;99.90;;;;;;5023254;28;20199;-79
2022/01/20 08:48:11;;;;;;;11.87;11.07;;;4.30;99.90;;;;;;5026816;28;20203;-77
2022/01/20 08:50:58;;;;;;;11.83;11.10;;;4.40;99.90;;;;;;5027771;28;20580;-78
2022/01/20 08:53:26;;;;;;;11.33;10.63;;;4.40;99.90;;;;;;5027494;28;20268;-78
2022/01/20 08:55:53;;;;;;;11.70;11.00;;;4.40;99.90;;;;;;5030896;28;20306;-77
2022/01/20 08:58:21;;;;;;;11.73;11.03;;;4.30;99.90;;;;;;5027257;28;20227;-78
2022/01/20 09:00:49;;;;;;;12.70;11.90;;;4.30;99.90;;;;;;5029218;28;20196;-77
2022/01/20 09:03:15;;;;;;;12.17;11.40;;;4.30;99.90;;;;;;5030551;28;20204;-76
2022/01/20 09:05:43;;;;;;;12.20;11.50;;;4.30;99.90;;;;;;5029084;28;20219;-78
2022/01/20 09:08:16;;;;;;;13.00;12.20;;;4.30;99.90;;;;;;5030728;28;20195;-78
2022/01/20 09:10:55;;;;;;;12.63;11.83;;;4.30;99.90;;;;;;5028314;28;20561;-80
2022/01/20 09:16:22;;;;;;;12.10;11.40;;;4.40;99.90;;;;;;4960052;28;20296;-77
2022/01/20 09:18:52;;;;;;;12.03;11.13;;;4.40;99.90;;;;;;4973372;28;20323;-77
2022/01/20 09:21:23;;;;;;;12.53;11.70;;;4.40;99.90;;;;;;5001397;28;20203;-77
2022/01/20 09:23:55;;;;;;;12.20;11.50;;;4.40;99.90;;;;;;5027796;28;20226;-77
2022/01/20 09:26:23;;;;;;;12.30;11.50;;;4.50;99.90;;;;;;5030893;28;21390;-77
2022/01/20 09:28:50;;;;;;;12.40;11.60;;;4.40;99.90;;;;;;5028128;28;20195;-78
2022/01/20 09:31:24;;;;;;;12.20;11.40;;;4.40;99.90;;;;;;5042907;28;20278;-78
2022/01/20 09:33:51;;;;;;;12.60;11.80;;;4.50;99.90;;;;;;5024939;28;20214;-78
2022/01/20 09:36:20;;;;;;;11.87;11.07;;;4.50;99.90;;;;;;5029993;28;20220;-77
2022/01/20 09:38:47;;;;;;;12.70;11.80;;;4.50;99.90;;;;;;5029174;28;20192;-78
2022/01/20 09:41:25;;;;;;;12.60;11.77;;;4.50;99.90;;;;;;5029222;28;20202;-78
2022/01/20 09:43:55;;;;;;;12.33;11.53;;;4.50;99.90;;;;;;5028542;28;20192;-77
2022/01/20 09:46:22;;;;;;;12.70;11.67;;;4.60;99.90;;;;;;5030760;28;20273;-79
2022/01/20 09:49:00;;;;;;;5.13;4.73;;;4.70;99.90;;;;;;5030351;28;20222;-77
2022/01/20 09:51:42;;;;;;;7.87;5.27;;;4.70;99.90;;;;;;5018576;28;20219;-78
2022/01/20 09:54:19;;;;;;;12.70;11.80;;;4.80;99.90;;;;;;5024111;28;20204;-77
2022/01/20 09:57:01;;;;;;;11.20;10.50;;;4.90;99.90;;;;;;5031422;28;20711;-78
2022/01/20 09:59:31;;;;;;;5.97;5.37;;;5.00;99.90;;;;;;5020094;28;20197;-79
2022/01/20 10:01:58;;;;;;;8.43;7.73;;;5.00;99.90;;;;;;5024418;28;20207;-77
2022/01/20 10:04:29;;;;;;;7.90;7.30;;;5.10;99.90;;;;;;5028467;28;20203;-79
2022/01/20 10:06:58;;;;;;;11.60;10.70;;;5.20;99.90;;;;;;5027078;28;20212;-78
2022/01/20 10:09:34;;;;;;;11.60;10.73;;;5.30;99.90;;;;;;5028901;28;20223;-77
2022/01/20 10:12:10;;;;;;;15.07;14.07;;;5.40;99.90;;;;;;5028549;28;20207;-77
2022/01/20 10:14:49;;;;;;;13.10;12.00;;;5.40;99.90;;;;;;5029821;28;20291;-78
2022/01/20 10:17:42;;;;;;;12.70;11.70;;;5.40;99.90;;;;;;5012249;28;20250;-77
2022/01/20 10:20:10;;;;;;;13.00;12.10;;;5.40;99.90;;;;;;5030400;28;20237;-79
2022/01/20 10:22:56;;;;;;;12.63;11.67;;;5.40;99.90;;;;;;5027284;28;20285;-79
2022/01/20 10:25:42;;;;;;;12.20;11.40;;;5.30;99.90;;;;;;5037137;28;20684;-77
2022/01/20 10:28:15;;;;;;;12.93;11.73;;;5.30;99.90;;;;;;5022182;28;20195;-78
2022/01/20 10:30:44;;;;;;;12.17;11.27;;;5.30;99.90;;;;;;5030415;28;20210;-78
2022/01/20 10:33:11;;;;;;;12.63;11.83;;;5.30;99.90;;;;;;5026298;28;20286;-76
2022/01/20 10:35:41;;;;;;;12.10;11.13;;;5.30;99.90;;;;;;5026872;28;20664;-78
2022/01/20 10:38:20;;;;;;;12.50;11.63;;;5.30;99.90;;;;;;5028891;28;20226;-78
2022/01/20 10:40:59;;;;;;;12.20;11.43;;;5.40;99.90;;;;;;5030225;28;20195;-79
2022/01/20 10:43:35;;;;;;;12.93;11.90;;;5.50;99.90;;;;;;5026144;28;20199;-78
2022/01/20 10:46:20;;;;;;;12.30;11.30;;;5.50;99.90;;;;;;5045316;28;20234;-77
2022/01/20 10:48:59;;;;;;;12.40;11.50;;;5.60;99.90;;;;;;5025254;28;20245;-78
2022/01/20 10:51:27;;;;;;;13.60;11.83;;;5.60;99.90;;;;;;5039929;28;20286;-78
2022/01/20 10:54:01;;;;;;;12.70;11.50;;;5.70;99.90;;;;;;5029970;28;20188;-79
2022/01/20 10:56:30;;;;;;;12.67;11.60;;;5.70;99.90;;;;;;5025718;28;20306;-77
2022/01/20 10:59:08;;;;;;;12.87;11.70;;;5.70;99.90;;;;;;5025119;28;20730;-78
2022/01/20 11:01:36;;;;;;;12.73;11.57;;;5.70;99.90;;;;;;5023660;28;20726;-78
2022/01/20 11:04:04;;;;;;;12.63;11.53;;;5.70;99.90;;;;;;5030876;28;20741;-78
2022/01/20 11:06:34;;;;;;;12.17;11.27;;;5.60;99.90;;;;;;5037142;28;20231;-78
2022/01/20 11:09:21;;;;;;;12.87;11.93;;;5.60;99.90;;;;;;5044826;28;20210;-78
2022/01/20 11:12:09;;;;;;;12.60;11.17;;;5.70;99.90;;;;;;5044132;28;20207;-78
2022/01/20 11:14:51;;;;;;;11.97;11.13;;;5.70;99.90;;;;;;5026639;28;20195;-78
2022/01/20 11:17:19;;;;;;;11.57;10.77;;;5.80;99.90;;;;;;5028148;28;20238;-78
2022/01/20 11:19:47;;;;;;;13.00;11.73;;;5.90;99.90;;;;;;5026501;28;20192;-78
2022/01/20 11:22:15;;;;;;;12.63;11.63;;;6.00;99.90;;;;;;5022497;28;20645;-78
2022/01/20 11:24:59;;;;;;;13.03;12.10;;;6.00;99.90;;;;;;5019306;28;20228;-77
2022/01/20 11:27:39;;;;;;;12.40;11.50;;;6.10;99.90;;;;;;5019059;28;20223;-78
2022/01/20 11:30:23;;;;;;;12.70;11.77;;;6.10;99.90;;;;;;5034954;28;20246;-78
2022/01/20 11:33:09;;;;;;;13.10;11.87;;;6.10;99.90;;;;;;5026594;28;20710;-77
2022/01/20 11:35:45;;;;;;;12.07;11.17;;;6.10;99.90;;;;;;5027841;28;20198;-78
2022/01/20 11:38:14;;;;;;;12.80;11.60;;;6.00;99.90;;;;;;5045097;28;20220;-77
2022/01/20 11:40:53;;;;;;;12.40;11.40;;;5.90;99.90;;;;;;5045787;28;20215;-77
2022/01/20 11:43:31;;;;;;;12.27;11.03;;;5.90;99.90;;;;;;5046370;28;20683;-78
2022/01/20 11:46:14;;;;;;;12.20;11.00;;;5.90;99.90;;;;;;5045540;28;20216;-77
2022/01/20 11:48:56;;;;;;;11.40;10.60;;;5.90;99.90;;;;;;5017875;28;20196;-78
2022/01/20 11:51:24;;;;;;;11.43;10.63;;;5.90;99.90;;;;;;5022124;28;20823;-78
2022/01/20 11:53:59;;;;;;;12.80;11.33;;;5.90;99.90;;;;;;5040653;28;20200;-78
2022/01/20 11:56:33;;;;;;;16.83;11.37;;;6.10;99.90;;;;;;5043198;28;20211;-78
2022/01/20 11:59:00;;;;;;;11.27;10.37;;;6.10;99.90;;;;;;5043763;28;20208;-78
2022/01/20 12:01:30;;;;;;;11.53;10.67;;;6.00;99.90;;;;;;5046855;28;20246;-77
2022/01/20 12:03:57;;;;;;;11.83;11.03;;;6.10;99.90;;;;;;5022230;28;20560;-77
2022/01/20 12:06:57;;;;;;;11.53;10.67;;;6.10;99.90;;;;;;5032588;28;20232;-78
2022/01/20 12:09:30;;;;;;;12.03;11.03;;;6.00;99.90;;;;;;5028167;28;20201;-77
2022/01/20 12:11:57;;;;;;;11.77;10.83;;;5.90;99.90;;;;;;5043879;28;20540;-77
2022/01/20 12:14:35;;;;;;;12.00;11.10;;;5.80;99.90;;;;;;5020905;28;20251;-77
2022/01/20 12:17:11;;;;;;;11.53;10.70;;;5.90;99.90;;;;;;5020223;28;20327;-78
2022/01/20 12:19:38;;;;;;;11.60;10.73;;;5.90;99.90;;;;;;5017907;28;20624;-77
2022/01/20 12:22:06;;;;;;;11.23;10.53;;;5.90;99.90;;;;;;5042918;28;20275;-78
2022/01/20 12:24:35;;;;;;;11.67;10.87;;;5.90;99.90;;;;;;5045221;28;20192;-77
2022/01/20 12:27:02;;;;;;;11.37;10.67;;;5.90;99.90;;;;;;5040285;28;20225;-78
2022/01/20 12:29:36;;;;;;;12.00;10.93;;;6.00;99.90;;;;;;5039109;28;20200;-77
2022/01/20 12:32:13;;;;;;;12.50;11.40;;;5.90;99.90;;;;;;5044871;28;20607;-78
2022/01/20 12:34:41;;;;;;;11.67;10.77;;;5.80;99.90;;;;;;5038546;28;20188;-76
2022/01/20 12:37:08;;;;;;;11.47;10.40;;;5.80;99.90;;;;;;5018966;28;20282;-77
2022/01/20 12:39:37;;;;;;;12.67;11.40;;;5.70;99.90;;;;;;5041074;28;20219;-77
2022/01/20 12:42:06;;;;;;;11.20;10.50;;;5.70;99.90;;;;;;5041486;28;20219;-78
2022/01/20 12:44:41;;;;;;;12.07;11.07;;;5.80;99.90;;;;;;5016896;28;20196;-77
2022/01/20 12:47:08;;;;;;;12.00;11.00;;;5.80;99.90;;;;;;5026600;28;20225;-79
2022/01/20 12:49:37;;;;;;;11.27;10.40;;;5.80;99.90;;;;;;5044757;28;20710;-77
2022/01/20 12:52:07;;;;;;;11.53;10.63;;;5.80;99.90;;;;;;5026732;28;20294;-78
2022/01/20 12:54:35;;;;;;;12.30;11.23;;;5.80;99.90;;;;;;5045201;28;20206;-78
2022/01/20 12:57:04;;;;;;;11.80;11.00;;;5.90;99.90;;;;;;5043251;28;20212;-78
2022/01/20 12:59:33;;;;;;;12.20;11.20;;;5.90;99.90;;;;;;5040041;28;20246;-78
2022/01/20 13:02:02;;;;;;;11.07;10.37;;;5.90;99.90;;;;;;5044750;28;20203;-78
2022/01/20 13:04:30;;;;;;;11.63;10.83;;;5.90;99.90;;;;;;5032182;28;20226;-77
2022/01/20 13:07:01;;;;;;;11.67;10.87;;;6.00;99.90;;;;;;5039509;28;20225;-79
2022/01/20 13:09:38;;;;;;;11.60;10.83;;;6.00;99.90;;;;;;5034813;28;20547;-78
2022/01/20 13:12:06;;;;;;;11.50;10.70;;;5.90;99.90;;;;;;5025194;28;20199;-78
2022/01/20 13:14:35;;;;;;;12.13;11.20;;;5.80;99.90;;;;;;5044841;28;20188;-77
2022/01/20 13:17:03;;;;;;;12.20;11.20;;;5.70;99.90;;;;;;5041779;28;20215;-77
2022/01/20 13:19:35;;;;;;;12.37;11.57;;;5.60;99.90;;;;;;5038633;28;20213;-77
2022/01/20 13:22:05;;;;;;;12.77;11.80;;;5.50;99.90;;;;;;5044030;28;20241;-77
2022/01/20 13:24:34;;;;;;;12.70;11.70;;;5.50;99.90;;;;;;5031057;28;20204;-77
2022/01/20 13:27:03;;;;;;;12.87;11.80;;;5.40;99.90;;;;;;5019062;28;20231;-78
2022/01/20 13:29:41;;;;;;;12.83;11.80;;;5.30;99.90;;;;;;5033347;28;20237;-78
2022/01/20 13:32:08;;;;;;;13.23;12.23;;;5.20;99.90;;;;;;5022220;28;20267;-78
2022/01/20 13:34:35;;;;;;;13.53;12.63;;;5.20;99.90;;;;;;5042317;28;20188;-76
2022/01/20 13:37:04;;;;;;;14.00;12.83;;;5.20;99.90;;;;;;5039436;28;20736;-76
2022/01/20 13:39:35;;;;;;;12.43;11.53;;;5.10;99.90;;;;;;5043562;28;20711;-77
2022/01/20 13:42:19;;;;;;;12.00;10.90;;;5.10;99.90;;;;;;5045755;28;20199;-78
2022/01/20 13:45:06;;;;;;;10.83;10.17;;;5.10;99.90;;;;;;5020160;28;20679;-76
2022/01/20 13:47:33;;;;;;;10.90;10.20;;;4.70;99.90;;;;;;5025013;28;20215;-76
2022/01/20 13:50:00;;;;;;;11.40;10.53;;;4.40;99.90;;;;;;5045228;28;20203;-78
2022/01/20 13:52:28;;;;;;;11.17;10.23;;;4.10;99.90;;;;;;5041446;28;20257;-77